createdAt,value
2022-11-29T00:00:28.994Z,47.97
2022-11-29T00:02:55.547Z,48.38
2022-11-29T00:05:22.005Z,48.00
2022-11-29T00:07:48.449Z,51.72
2022-11-29T00:10:15.123Z,53.42
2022-11-29T00:12:41.498Z,52.15
2022-11-29T00:15:08.003Z,48.95
2022-11-29T00:17:34.336Z,49.13
2022-11-29T00:20:00.674Z,49.50
2022-11-29T00:22:27.126Z,51.83
2022-11-29T00:24:53.499Z,51.72
2022-11-29T00:27:19.794Z,45.90
2022-11-29T00:29:46.096Z,49.58
2022-11-29T00:32:12.450Z,49.88
2022-11-29T00:34:38.796Z,53.45
2022-11-29T00:37:05.147Z,47.42
2022-11-29T00:39:31.629Z,52.97
2022-11-29T00:41:57.988Z,51.08
2022-11-29T00:44:24.354Z,53.22
2022-11-29T00:46:50.647Z,51.13
2022-11-29T00:49:17.201Z,49.92
2022-11-29T00:51:43.515Z,52.03
2022-11-29T00:54:09.876Z,47.28
2022-11-29T00:56:36.178Z,53.83
2022-11-29T00:59:02.681Z,47.90
2022-11-29T01:01:29.151Z,48.70
2022-11-29T01:03:55.621Z,51.28
2022-11-29T01:06:22.011Z,49.33
2022-11-29T01:08:49.494Z,50.97
2022-11-29T01:11:20.336Z,51.47
2022-11-29T01:13:47.132Z,47.75
2022-11-29T01:16:14.810Z,55.63
2022-11-29T01:18:41.464Z,47.85
2022-11-29T01:21:18.907Z,52.80
2022-11-29T01:23:45.830Z,48.90
2022-11-29T01:26:13.743Z,58.70
2022-11-29T01:28:40.688Z,57.88
2022-11-29T01:31:11.378Z,56.00
2022-11-29T01:33:37.993Z,54.00
2022-11-29T01:36:04.960Z,57.42
2022-11-29T01:38:31.557Z,67.65
2022-11-29T01:40:59.553Z,69.57
2022-11-29T01:43:25.910Z,63.55
2022-11-29T01:45:52.337Z,60.83
2022-11-29T01:48:19.766Z,61.65
2022-11-29T01:50:46.236Z,61.80
2022-11-29T01:53:14.017Z,55.97
2022-11-29T01:55:41.548Z,94.90
2022-11-29T01:58:08.715Z,69.40
2022-11-29T02:00:35.450Z,69.80
2022-11-29T02:03:05.300Z,73.70
2022-11-29T02:05:32.482Z,84.90
2022-11-29T02:07:58.970Z,85.57
2022-11-29T02:10:32.631Z,69.03
2022-11-29T02:13:19.229Z,77.53
2022-11-29T02:15:57.861Z,68.65
2022-11-29T02:18:39.392Z,67.15
2022-11-29T02:21:12.261Z,75.00
2022-11-29T02:23:50.832Z,75.28
2022-11-29T02:26:26.613Z,75.50
2022-11-29T02:29:02.055Z,94.03
2022-11-29T02:31:28.349Z,82.65
2022-11-29T02:33:57.643Z,74.80
2022-11-29T02:36:32.739Z,86.07
2022-11-29T02:38:59.050Z,72.15
2022-11-29T02:41:30.850Z,117.18
2022-11-29T02:44:03.274Z,95.60
2022-11-29T02:46:29.579Z,89.50
2022-11-29T02:48:55.912Z,92.57
2022-11-29T02:51:39.807Z,70.53
2022-11-29T02:54:10.543Z,88.63
2022-11-29T02:56:43.546Z,113.45
2022-11-29T02:59:17.064Z,125.13
2022-11-29T03:01:55.809Z,102.10
2022-11-29T03:04:26.100Z,167.55
2022-11-29T03:07:02.135Z,120.95
2022-11-29T03:09:46.560Z,72.03
2022-11-29T03:12:37.552Z,110.07
2022-11-29T03:15:25.129Z,111.82
2022-11-29T03:17:57.528Z,94.93
2022-11-29T03:20:23.931Z,87.20
2022-11-29T03:23:10.547Z,99.78
2022-11-29T03:25:40.017Z,111.15
2022-11-29T03:28:10.896Z,136.48
2022-11-29T03:30:38.639Z,108.07
2022-11-29T03:33:24.023Z,73.50
2022-11-29T03:35:58.100Z,99.30
2022-11-29T03:38:36.600Z,78.45
2022-11-29T03:41:09.069Z,73.00
2022-11-29T03:43:53.018Z,64.60
2022-11-29T03:46:37.540Z,73.03
2022-11-29T03:49:08.875Z,113.18
2022-11-29T03:51:35.139Z,70.95
2022-11-29T03:54:03.584Z,78.65
2022-11-29T03:56:31.281Z,72.88
2022-11-29T03:59:17.822Z,78.72
2022-11-29T04:01:53.458Z,73.82
2022-11-29T04:04:26.012Z,73.03
2022-11-29T04:07:04.650Z,87.80
2022-11-29T04:09:49.733Z,82.22
2022-11-29T04:12:34.935Z,94.15
2022-11-29T04:15:01.238Z,356.35
2022-11-29T04:17:41.949Z,149.20
2022-11-29T04:20:11.312Z,152.38
2022-11-29T04:22:53.541Z,211.75
2022-11-29T04:25:38.689Z,166.13
2022-11-29T04:28:24.731Z,80.80
2022-11-29T04:31:14.367Z,68.85
2022-11-29T04:33:53.214Z,91.40
2022-11-29T04:36:30.192Z,154.48
2022-11-29T04:39:04.796Z,114.80
2022-11-29T04:42:06.754Z,86.88
2022-11-29T04:44:59.132Z,103.43
2022-11-29T04:47:43.393Z,261.85
2022-11-29T04:52:35.968Z,145.20
2022-11-29T04:55:27.861Z,306.70
2022-11-29T04:58:16.132Z,216.63
2022-11-29T05:00:47.885Z,98.47
2022-11-29T05:03:20.158Z,247.48
2022-11-29T05:06:06.722Z,184.63
2022-11-29T05:09:05.579Z,189.02
2022-11-29T05:11:58.695Z,333.08
2022-11-29T05:14:40.284Z,281.40
2022-11-29T05:17:18.396Z,255.77
2022-11-29T05:19:53.929Z,320.15
2022-11-29T05:22:39.067Z,254.18
2022-11-29T05:25:24.272Z,124.07
2022-11-29T05:28:04.468Z,164.05
2022-11-29T05:33:08.545Z,249.90
2022-11-29T05:35:54.619Z,176.68
2022-11-29T05:38:20.915Z,84.25
2022-11-29T05:41:06.018Z,78.43
2022-11-29T05:43:41.560Z,99.32
2022-11-29T05:46:14.122Z,94.40
2022-11-29T05:48:50.933Z,403.15
2022-11-29T05:51:17.238Z,255.57
2022-11-29T05:53:43.595Z,128.07
2022-11-29T05:56:12.976Z,126.80
2022-11-29T05:58:49.340Z,267.48
2022-11-29T06:01:28.266Z,79.32
2022-11-29T06:04:01.230Z,219.88
2022-11-29T06:06:31.021Z,239.37
2022-11-29T06:09:03.971Z,156.45
2022-11-29T06:11:36.247Z,289.73
2022-11-29T06:14:03.078Z,233.23
2022-11-29T06:16:29.433Z,278.17
2022-11-29T06:19:16.171Z,260.30
2022-11-29T06:21:45.728Z,390.25
2022-11-29T06:24:29.725Z,310.25
2022-11-29T06:27:04.830Z,238.35
2022-11-29T06:29:40.206Z,196.82
2022-11-29T06:32:20.587Z,222.98
2022-11-29T06:34:53.802Z,172.13
2022-11-29T06:37:23.063Z,151.98
2022-11-29T06:39:49.516Z,229.52
2022-11-29T06:42:16.015Z,305.58
2022-11-29T06:44:42.858Z,180.43
2022-11-29T06:47:14.732Z,427.05
2022-11-29T06:49:48.993Z,212.27
2022-11-29T06:52:22.545Z,509.00
2022-11-29T06:54:55.647Z,171.60
2022-11-29T06:57:34.439Z,344.35
2022-11-29T07:00:16.373Z,250.88
2022-11-29T07:02:55.114Z,219.57
2022-11-29T07:05:32.205Z,304.25
2022-11-29T07:08:02.542Z,250.88
2022-11-29T07:10:30.615Z,144.68
2022-11-29T07:12:57.070Z,144.50
2022-11-29T07:15:23.871Z,265.35
2022-11-29T07:17:50.170Z,246.93
2022-11-29T07:20:35.412Z,273.08
2022-11-29T07:23:20.506Z,285.60
2022-11-29T07:26:05.672Z,430.40
2022-11-29T07:28:41.478Z,388.33
2022-11-29T07:31:26.522Z,235.93
2022-11-29T07:34:05.412Z,395.35
2022-11-29T07:36:35.118Z,396.92
2022-11-29T07:39:12.092Z,442.83
2022-11-29T07:41:38.346Z,424.50
2022-11-29T07:44:11.516Z,390.90
2022-11-29T07:46:37.866Z,525.47
2022-11-29T07:49:04.258Z,375.52
2022-11-29T07:51:31.128Z,484.00
2022-11-29T07:53:57.443Z,506.10
2022-11-29T07:56:23.757Z,552.50
2022-11-29T07:58:50.161Z,227.90
2022-11-29T08:01:16.566Z,596.88
2022-11-29T08:03:42.957Z,318.08
2022-11-29T08:06:09.677Z,489.20
2022-11-29T08:08:40.721Z,604.38
2022-11-29T08:11:11.888Z,417.75
2022-11-29T08:13:38.199Z,501.25
2022-11-29T08:16:04.633Z,407.92
2022-11-29T08:18:31.042Z,533.50
2022-11-29T08:20:57.311Z,319.13
2022-11-29T08:23:23.639Z,172.35
2022-11-29T08:25:49.946Z,151.45
2022-11-29T08:28:16.250Z,107.50
2022-11-29T08:30:42.563Z,131.38
2022-11-29T08:33:08.885Z,118.57
2022-11-29T08:35:35.899Z,117.10
2022-11-29T08:38:03.721Z,129.85
2022-11-29T08:40:30.072Z,146.13
2022-11-29T08:42:59.491Z,97.28
2022-11-29T08:45:25.892Z,116.20
2022-11-29T08:47:52.299Z,95.97
2022-11-29T08:50:18.648Z,95.10
2022-11-29T08:53:04.525Z,89.18
2022-11-29T08:55:33.077Z,106.82
2022-11-29T08:58:03.806Z,108.38
2022-11-29T09:00:30.478Z,90.95
2022-11-29T09:03:16.778Z,97.93
2022-11-29T09:05:43.738Z,95.22
2022-11-29T09:08:10.244Z,96.47
2022-11-29T09:10:37.869Z,93.45
2022-11-29T09:13:04.228Z,112.38
2022-11-29T09:15:30.533Z,93.85
2022-11-29T09:17:57.025Z,96.28
2022-11-29T09:20:23.349Z,124.00
2022-11-29T09:22:49.668Z,128.43
2022-11-29T09:25:15.999Z,117.30
2022-11-29T09:27:42.295Z,167.38
2022-11-29T09:30:08.843Z,168.65
2022-11-29T09:32:35.507Z,253.85
2022-11-29T09:35:01.798Z,165.18
2022-11-29T09:37:28.138Z,136.10
2022-11-29T09:39:54.491Z,123.15
2022-11-29T09:42:31.430Z,387.92
2022-11-29T09:45:04.007Z,210.45
2022-11-29T09:47:31.796Z,283.60
2022-11-29T09:49:58.086Z,132.25
2022-11-29T09:52:39.639Z,205.48
2022-11-29T09:55:24.830Z,176.20
2022-11-29T09:57:53.231Z,141.88
2022-11-29T10:00:19.933Z,188.35
2022-11-29T10:02:52.846Z,129.80
2022-11-29T10:05:22.207Z,131.65
2022-11-29T10:07:50.573Z,129.63
2022-11-29T10:10:29.330Z,152.95
2022-11-29T10:12:59.896Z,114.88
2022-11-29T10:15:31.267Z,105.75
2022-11-29T10:18:33.273Z,85.32
2022-11-29T10:21:04.471Z,98.95
2022-11-29T10:23:40.400Z,88.65
2022-11-29T10:26:08.122Z,76.45
2022-11-29T10:28:35.724Z,70.35
2022-11-29T10:31:08.294Z,65.32
2022-11-29T10:33:36.579Z,68.32
2022-11-29T10:36:05.167Z,66.03
2022-11-29T10:38:32.105Z,57.95
2022-11-29T10:41:01.612Z,60.38
2022-11-29T10:43:27.956Z,58.97
2022-11-29T10:45:56.043Z,52.95
2022-11-29T10:48:24.427Z,57.08
2022-11-29T10:50:51.772Z,51.60
2022-11-29T10:53:25.351Z,51.25
2022-11-29T10:56:07.147Z,45.35
2022-11-29T10:58:33.782Z,44.15
2022-11-29T11:01:07.551Z,42.75
2022-11-29T11:03:52.834Z,47.35
2022-11-29T11:06:24.036Z,40.22
2022-11-29T11:08:54.901Z,49.10
2022-11-29T11:11:28.801Z,44.83
2022-11-29T11:16:24.361Z,42.97
2022-11-29T11:18:50.848Z,41.55
2022-11-29T11:21:19.615Z,39.20
2022-11-29T11:23:52.257Z,39.55
2022-11-29T11:26:18.633Z,40.35
2022-11-29T11:29:01.479Z,35.42
2022-11-29T11:31:34.040Z,33.95
2022-11-29T11:34:19.195Z,34.03
2022-11-29T11:36:45.560Z,30.58
2022-11-29T11:39:12.985Z,32.28
2022-11-29T11:42:00.740Z,30.05
2022-11-29T11:44:47.609Z,28.23
2022-11-29T11:47:21.944Z,31.55
2022-11-29T11:49:50.518Z,29.00
2022-11-29T11:52:20.778Z,31.30
2022-11-29T11:54:50.276Z,27.42
2022-11-29T11:57:17.742Z,30.55
2022-11-29T11:59:47.579Z,34.08
2022-11-29T12:02:24.490Z,32.83
2022-11-29T12:04:52.026Z,33.80
2022-11-29T12:07:45.064Z,33.35
2022-11-29T12:10:20.230Z,35.95
2022-11-29T12:12:48.448Z,35.80
2022-11-29T12:15:26.000Z,36.75
2022-11-29T12:18:12.323Z,42.08
2022-11-29T12:20:59.051Z,64.05
2022-11-29T12:23:39.745Z,94.95
2022-11-29T12:26:13.620Z,85.93
2022-11-29T12:28:47.334Z,80.82
2022-11-29T12:31:27.331Z,75.63
2022-11-29T12:34:12.493Z,72.78
2022-11-29T12:36:57.810Z,42.45
2022-11-29T12:39:45.310Z,33.88
2022-11-29T12:42:26.239Z,33.67
2022-11-29T12:45:19.018Z,33.25
2022-11-29T12:47:50.447Z,32.60
2022-11-29T12:50:37.222Z,30.75
2022-11-29T12:53:27.451Z,31.27
2022-11-29T12:56:14.858Z,34.70
2022-11-29T12:58:46.061Z,30.75
2022-11-29T13:01:31.618Z,26.58
2022-11-29T13:04:11.178Z,27.23
2022-11-29T13:06:56.004Z,29.05
2022-11-29T13:09:29.267Z,27.75
2022-11-29T13:11:58.315Z,23.67
2022-11-29T13:14:42.619Z,23.35
2022-11-29T13:17:17.031Z,23.15
2022-11-29T13:20:04.015Z,21.98
2022-11-29T13:22:47.351Z,21.65
2022-11-29T13:25:16.815Z,21.40
2022-11-29T13:27:46.731Z,21.92
2022-11-29T13:30:14.631Z,23.27
2022-11-29T13:32:53.728Z,20.42
2022-11-29T13:35:22.756Z,22.08
2022-11-29T13:37:55.367Z,43.72
2022-11-29T13:40:40.203Z,60.25
2022-11-29T13:43:17.387Z,60.47
2022-11-29T13:45:46.693Z,61.28
2022-11-29T13:48:31.703Z,58.45
2022-11-29T13:50:58.163Z,63.67
2022-11-29T13:53:25.414Z,57.47
2022-11-29T13:56:01.704Z,50.53
2022-11-29T13:58:28.000Z,43.83
2022-11-29T14:01:14.599Z,45.70
2022-11-29T14:03:42.069Z,41.03
2022-11-29T14:06:13.301Z,43.05
2022-11-29T14:09:17.267Z,36.38
2022-11-29T14:11:45.247Z,25.55
2022-11-29T14:14:21.275Z,18.65
2022-11-29T14:16:53.105Z,18.30
2022-11-29T14:19:20.039Z,15.48
2022-11-29T14:21:58.586Z,13.98
2022-11-29T14:24:37.122Z,11.68
2022-11-29T14:27:06.663Z,14.52
2022-11-29T14:29:53.551Z,12.52
2022-11-29T14:32:22.365Z,11.77
2022-11-29T14:34:52.803Z,12.90
2022-11-29T14:37:30.816Z,12.55
2022-11-29T14:39:58.823Z,10.25
2022-11-29T14:42:26.041Z,12.02
2022-11-29T14:44:52.335Z,13.45
2022-11-29T14:47:21.424Z,12.23
2022-11-29T14:49:47.812Z,13.35
2022-11-29T14:52:14.087Z,16.23
2022-11-29T14:54:58.193Z,17.30
2022-11-29T14:59:52.384Z,18.85
2022-11-29T15:02:27.357Z,20.48
2022-11-29T15:04:55.867Z,19.92
2022-11-29T15:07:28.658Z,21.75
2022-11-29T15:09:56.066Z,18.70
2022-11-29T15:12:26.411Z,20.95
2022-11-29T15:15:11.633Z,19.65
2022-11-29T15:17:48.926Z,20.35
2022-11-29T15:20:18.247Z,21.20
2022-11-29T15:22:54.744Z,20.77
2022-11-29T15:25:25.893Z,25.27
2022-11-29T15:27:53.081Z,25.98
2022-11-29T15:30:28.724Z,29.67
2022-11-29T15:32:55.365Z,28.90
2022-11-29T15:35:21.654Z,33.90
2022-11-29T15:37:49.607Z,32.38
2022-11-29T15:40:18.080Z,39.83
2022-11-29T15:42:44.391Z,34.35
2022-11-29T15:45:29.823Z,34.17
2022-11-29T15:48:10.527Z,31.35
2022-11-29T15:50:37.520Z,37.83
2022-11-29T15:53:05.623Z,41.45
2022-11-29T15:55:32.855Z,38.83
2022-11-29T15:58:02.698Z,45.50
2022-11-29T16:00:33.699Z,37.92
2022-11-29T16:03:01.575Z,40.45
2022-11-29T16:05:30.263Z,38.83
2022-11-29T16:08:01.477Z,38.25
2022-11-29T16:10:35.217Z,35.80
2022-11-29T16:13:06.674Z,37.95
2022-11-29T16:15:37.342Z,34.10
2022-11-29T16:18:05.207Z,35.10
2022-11-29T16:20:31.747Z,33.03
2022-11-29T16:23:11.539Z,36.78
2022-11-29T16:26:08.050Z,43.45
2022-11-29T16:28:36.136Z,36.00
2022-11-29T16:31:04.688Z,36.20
2022-11-29T16:33:31.067Z,39.55
2022-11-29T16:36:11.100Z,34.08
2022-11-29T16:38:42.498Z,40.88
2022-11-29T16:41:20.838Z,48.60
2022-11-29T16:43:53.755Z,44.50
2022-11-29T16:46:20.234Z,41.33
2022-11-29T16:48:46.834Z,49.00
2022-11-29T16:51:18.161Z,40.78
2022-11-29T16:53:47.733Z,37.60
2022-11-29T16:56:16.554Z,39.72
2022-11-29T16:59:25.421Z,44.42
2022-11-29T17:01:31.567Z,39.72
2022-11-29T17:03:59.492Z,46.67
2022-11-29T17:06:26.871Z,44.45
2022-11-29T17:08:54.072Z,43.00
2022-11-29T17:11:20.412Z,44.35
2022-11-29T17:13:46.959Z,40.97
2022-11-29T17:16:14.614Z,46.92
2022-11-29T17:18:41.943Z,44.05
2022-11-29T17:21:21.769Z,40.63
2022-11-29T17:23:48.476Z,45.50
2022-11-29T17:26:15.445Z,45.80
2022-11-29T17:28:42.270Z,50.97
2022-11-29T17:31:09.666Z,52.30
2022-11-29T17:33:35.959Z,49.78
2022-11-29T17:36:06.827Z,48.38
2022-11-29T17:38:33.488Z,50.55
2022-11-29T17:40:59.852Z,47.42
2022-11-29T17:43:26.201Z,42.83
2022-11-29T17:45:52.652Z,47.03
2022-11-29T17:48:19.074Z,45.67
2022-11-29T17:50:45.412Z,40.97
2022-11-29T17:53:11.694Z,47.28
2022-11-29T17:55:38.113Z,52.00
2022-11-29T17:58:04.392Z,51.17
2022-11-29T18:00:30.780Z,47.33
2022-11-29T18:02:57.067Z,51.05
2022-11-29T18:05:23.359Z,41.10
2022-11-29T18:07:58.896Z,49.60
2022-11-29T18:10:26.249Z,44.80
2022-11-29T18:12:52.748Z,40.88
2022-11-29T18:15:19.034Z,51.90
2022-11-29T18:17:45.351Z,44.63
2022-11-29T18:20:13.528Z,48.80
2022-11-29T18:22:39.990Z,53.10
2022-11-29T18:25:36.854Z,45.20
2022-11-29T18:27:52.670Z,48.15
2022-11-29T18:30:19.134Z,49.42
2022-11-29T18:32:45.438Z,51.20
2022-11-29T18:35:11.865Z,46.75
2022-11-29T18:38:12.912Z,49.17
2022-11-29T18:40:24.479Z,45.22
2022-11-29T18:42:50.986Z,47.75
2022-11-29T18:45:17.321Z,56.10
2022-11-29T18:47:44.310Z,50.72
2022-11-29T18:50:10.767Z,49.28
2022-11-29T18:52:40.720Z,49.85
2022-11-29T18:55:07.442Z,48.08
2022-11-29T18:57:33.787Z,55.88
2022-11-29T19:00:00.094Z,49.08
2022-11-29T19:02:26.485Z,53.45
2022-11-29T19:04:52.869Z,53.08
2022-11-29T19:07:19.244Z,53.22
2022-11-29T19:09:45.648Z,49.25
2022-11-29T19:12:12.012Z,47.40
2022-11-29T19:14:40.973Z,47.63
2022-11-29T19:17:09.039Z,52.35
2022-11-29T19:19:35.527Z,44.50
2022-11-29T19:22:01.816Z,46.03
2022-11-29T19:24:28.180Z,49.35
2022-11-29T19:26:56.095Z,50.00
2022-11-29T19:29:22.498Z,51.63
2022-11-29T19:31:50.278Z,57.60
2022-11-29T19:34:16.704Z,51.20
2022-11-29T19:36:44.137Z,50.28
2022-11-29T19:39:12.135Z,56.60
2022-11-29T19:41:38.551Z,47.95
2022-11-29T19:44:06.408Z,55.28
2022-11-29T19:46:34.512Z,58.00
2022-11-29T19:49:00.974Z,52.10
2022-11-29T19:51:28.162Z,50.25
2022-11-29T19:53:55.496Z,48.75
2022-11-29T19:56:22.134Z,54.65
2022-11-29T19:58:48.799Z,51.90
2022-11-29T20:01:15.212Z,56.13
2022-11-29T20:03:42.041Z,50.92
2022-11-29T20:06:09.055Z,47.83
2022-11-29T20:08:35.940Z,47.72
2022-11-29T20:11:08.485Z,43.70
2022-11-29T20:13:34.829Z,50.03
2022-11-29T20:16:02.207Z,51.40
2022-11-29T20:18:32.651Z,44.85
2022-11-29T20:21:05.128Z,51.50
2022-11-29T20:23:31.910Z,51.58
2022-11-29T20:25:58.227Z,53.15
2022-11-29T20:28:24.580Z,49.72
2022-11-29T20:30:52.248Z,49.90
2022-11-29T20:33:21.264Z,53.00
2022-11-29T20:35:48.539Z,50.72
2022-11-29T20:38:33.814Z,51.88
2022-11-29T20:41:03.435Z,51.45
2022-11-29T20:43:41.451Z,55.70
2022-11-29T20:46:07.953Z,49.33
2022-11-29T20:48:34.369Z,47.30
2022-11-29T20:51:01.484Z,51.95
2022-11-29T20:53:34.013Z,49.78
2022-11-29T20:56:00.588Z,52.63
2022-11-29T20:58:26.932Z,49.10
2022-11-29T21:00:56.710Z,57.95
2022-11-29T21:03:23.387Z,60.00
2022-11-29T21:05:50.597Z,59.30
2022-11-29T21:08:17.541Z,54.95
2022-11-29T21:10:43.973Z,51.08
2022-11-29T21:13:11.151Z,61.05
2022-11-29T21:15:39.001Z,58.38
2022-11-29T21:18:05.477Z,58.60
2022-11-29T21:20:32.085Z,51.85
2022-11-29T21:23:00.919Z,52.97
2022-11-29T21:25:46.236Z,58.17
2022-11-29T21:28:14.015Z,48.50
2022-11-29T21:30:40.565Z,53.65
2022-11-29T21:33:07.179Z,48.33
2022-11-29T21:35:33.665Z,50.60
2022-11-29T21:38:01.506Z,48.25
2022-11-29T21:40:28.284Z,48.28
2022-11-29T21:42:54.608Z,51.45
2022-11-29T21:45:20.945Z,56.03
2022-11-29T21:47:47.294Z,50.38
2022-11-29T21:50:13.671Z,59.97
2022-11-29T21:52:40.076Z,60.40
2022-11-29T21:55:06.541Z,54.55
2022-11-29T21:57:32.891Z,55.63
2022-11-29T21:59:59.251Z,55.90
2022-11-29T22:02:25.652Z,61.03
2022-11-29T22:04:52.060Z,56.85
2022-11-29T22:07:18.405Z,62.60
2022-11-29T22:09:45.419Z,55.08
2022-11-29T22:12:32.413Z,62.58
2022-11-29T22:14:58.068Z,58.90
2022-11-29T22:17:24.417Z,70.15
2022-11-29T22:19:50.748Z,57.47
2022-11-29T22:22:17.198Z,57.28
2022-11-29T22:24:43.619Z,63.63
2022-11-29T22:27:10.016Z,65.47
2022-11-29T22:29:36.325Z,62.17
2022-11-29T22:32:02.723Z,73.68
2022-11-29T22:34:29.120Z,64.20
2022-11-29T22:36:55.543Z,69.72
2022-11-29T22:39:22.424Z,79.88
2022-11-29T22:41:53.946Z,68.90
2022-11-29T22:44:21.295Z,64.95
2022-11-29T22:46:47.701Z,66.25
2022-11-29T22:49:14.205Z,69.50
2022-11-29T22:51:40.609Z,73.40
2022-11-29T22:54:08.859Z,67.40
2022-11-29T22:56:36.420Z,72.97
2022-11-29T22:59:03.232Z,73.00
2022-11-29T23:01:30.570Z,62.25
2022-11-29T23:03:57.859Z,65.63
2022-11-29T23:06:28.433Z,64.50
2022-11-29T23:08:56.102Z,62.78
2022-11-29T23:11:24.080Z,66.78
2022-11-29T23:13:50.647Z,58.22
2022-11-29T23:16:18.277Z,57.70
2022-11-29T23:18:47.630Z,67.30
2022-11-29T23:21:15.315Z,76.07
2022-11-29T23:23:42.088Z,72.90
2022-11-29T23:26:08.988Z,65.63
2022-11-29T23:28:35.736Z,69.50
2022-11-29T23:31:02.239Z,64.00
2022-11-29T23:33:28.594Z,68.75
2022-11-29T23:36:02.169Z,68.70
2022-11-29T23:38:28.947Z,61.92
2022-11-29T23:40:55.424Z,61.85
2022-11-29T23:43:22.235Z,68.97
2022-11-29T23:45:48.621Z,69.03
2022-11-29T23:48:14.974Z,66.68
2022-11-29T23:50:42.212Z,68.72
2022-11-29T23:53:11.077Z,67.18
2022-11-29T23:55:37.461Z,68.97
2022-11-29T23:58:03.787Z,62.90
